Time;durP1;ratioP1;P1;durP2;ratioP2;P2;SDS_P1;SDS_P2;PMS_P1;PMS_P2;Temp;Humidity;BMP_temperature;BMP_pressure;BME280_temperature;BME280_humidity;BME280_pressure;Samples;Min_cycle;Max_cycle;Signal;HPM_P1;HPM_P2
2021/06/30 00:01:34;;;;;;;;;11.33;8.00;;;;;;;;5049308;28;45547;-82
2021/06/30 00:03:59;;;;;;;;;7.33;7.33;;;;;;;;5052668;28;45397;-81
2021/06/30 00:06:25;;;;;;;;;8.00;7.00;;;;;;;;5051649;28;45914;-83
2021/06/30 00:08:50;;;;;;;;;6.33;6.00;;;;;;;;5048608;28;45443;-82
2021/06/30 00:11:16;;;;;;;;;10.75;7.25;;;;;;;;5052393;28;45478;-82
2021/06/30 00:13:42;;;;;;;;;7.75;6.75;;;;;;;;5053874;28;47872;-83
2021/06/30 00:16:08;;;;;;;;;8.75;6.75;;;;;;;;5052090;28;46601;-82
2021/06/30 00:18:36;;;;;;;;;8.00;8.00;;;;;;;;5052862;28;45517;-82
2021/06/30 00:21:01;;;;;;;;;8.25;5.50;;;;;;;;5051246;28;47413;-81
2021/06/30 00:23:26;;;;;;;;;10.00;9.00;;;;;;;;5050572;28;45920;-82
2021/06/30 00:25:52;;;;;;;;;11.67;7.00;;;;;;;;5048933;28;46348;-82
2021/06/30 00:28:17;;;;;;;;;10.33;6.00;;;;;;;;5051880;28;45461;-82
2021/06/30 00:30:45;;;;;;;;;5.00;5.00;;;;;;;;5051022;28;45510;-82
2021/06/30 00:33:10;;;;;;;;;7.25;6.50;;;;;;;;5051071;28;47891;-82
2021/06/30 00:35:36;;;;;;;;;7.00;4.25;;;;;;;;5052269;28;45568;-81
2021/06/30 00:38:01;;;;;;;;;9.67;7.00;;;;;;;;5050628;28;45340;-82
2021/06/30 00:40:26;;;;;;;;;7.50;6.00;;;;;;;;5046279;28;46897;-81
2021/06/30 00:42:52;;;;;;;;;6.00;6.00;;;;;;;;5053295;28;45318;-83
2021/06/30 00:45:19;;;;;;;;;4.50;4.50;;;;;;;;5054775;28;45699;-83
2021/06/30 00:47:44;;;;;;;;;5.25;5.25;;;;;;;;5050317;28;45540;-83
2021/06/30 00:50:10;;;;;;;;;7.00;4.25;;;;;;;;5049779;28;45747;-82
2021/06/30 00:52:35;;;;;;;;;12.25;6.00;;;;;;;;5051468;28;46237;-81
2021/06/30 00:55:00;;;;;;;;;5.33;4.00;;;;;;;;5050516;28;45549;-82
2021/06/30 00:57:26;;;;;;;;;4.00;4.00;;;;;;;;5051746;28;45479;-81
2021/06/30 00:59:54;;;;;;;;;5.00;5.00;;;;;;;;5051331;28;45454;-81
2021/06/30 01:02:19;;;;;;;;;5.00;4.00;;;;;;;;5051022;28;47173;-81
2021/06/30 01:04:44;;;;;;;;;8.33;4.33;;;;;;;;5050246;28;45711;-82
2021/06/30 01:07:10;;;;;;;;;13.00;6.67;;;;;;;;5052180;28;45369;-82
2021/06/30 01:09:35;;;;;;;;;6.67;5.67;;;;;;;;5050237;28;45468;-82
2021/06/30 01:12:00;;;;;;;;;8.67;5.33;;;;;;;;5050365;28;45631;-82
2021/06/30 01:14:27;;;;;;;;;9.50;6.00;;;;;;;;5050627;28;45383;-82
2021/06/30 01:16:52;;;;;;;;;4.75;4.75;;;;;;;;5051561;28;45565;-81
2021/06/30 01:19:21;;;;;;;;;9.00;6.75;;;;;;;;5051647;28;45537;-82
2021/06/30 01:21:47;;;;;;;;;5.50;5.50;;;;;;;;5051486;28;47170;-82
2021/06/30 01:24:12;;;;;;;;;7.00;5.75;;;;;;;;5053041;28;45581;-81
2021/06/30 01:26:38;;;;;;;;;9.00;6.50;;;;;;;;5046897;28;45619;-82
2021/06/30 01:29:03;;;;;;;;;11.75;8.25;;;;;;;;5060499;28;45475;-81
2021/06/30 01:31:28;;;;;;;;;8.67;6.00;;;;;;;;5054155;28;46646;-82
2021/06/30 01:33:53;;;;;;;;;7.67;7.00;;;;;;;;5052495;28;45506;-81
2021/06/30 01:36:18;;;;;;;;;12.33;9.00;;;;;;;;5050292;28;45454;-81
2021/06/30 01:38:44;;;;;;;;;11.00;9.00;;;;;;;;5048380;28;45602;-81
2021/06/30 01:41:11;;;;;;;;;11.67;11.67;;;;;;;;5048457;28;48181;-81
2021/06/30 01:43:36;;;;;;;;;10.50;8.25;;;;;;;;5052298;28;45725;-81
2021/06/30 01:46:01;;;;;;;;;12.33;9.67;;;;;;;;5055739;28;45369;-82
2021/06/30 01:48:27;;;;;;;;;11.50;9.00;;;;;;;;5054989;28;45700;-81
2021/06/30 01:50:52;;;;;;;;;11.00;7.25;;;;;;;;5055083;28;46102;-81
2021/06/30 01:53:18;;;;;;;;;8.50;8.50;;;;;;;;5054209;28;46212;-81
2021/06/30 01:55:44;;;;;;;;;11.25;8.25;;;;;;;;5053847;28;45786;-82
2021/06/30 01:58:09;;;;;;;;;10.75;8.75;;;;;;;;5056516;28;45525;-82
2021/06/30 02:00:34;;;;;;;;;12.00;9.50;;;;;;;;5052343;28;48050;-81
2021/06/30 02:03:00;;;;;;;;;14.50;10.25;;;;;;;;5054121;28;45488;-81
2021/06/30 02:05:26;;;;;;;;;10.00;8.75;;;;;;;;5054626;28;45613;-81
2021/06/30 02:07:53;;;;;;;;;16.75;9.75;;;;;;;;5051694;28;45495;-82
2021/06/30 02:10:19;;;;;;;;;9.00;9.00;;;;;;;;5052144;28;47371;-81
2021/06/30 02:12:44;;;;;;;;;10.75;7.50;;;;;;;;5054188;28;45773;-81
2021/06/30 02:15:23;;;;;;;;;8.25;7.00;;;;;;;;5056344;28;45820;-82
2021/06/30 02:17:49;;;;;;;;;7.75;6.25;;;;;;;;5055600;27;45793;-81
2021/06/30 02:20:15;;;;;;;;;10.75;7.75;;;;;;;;5056653;28;46074;-81
2021/06/30 02:22:40;;;;;;;;;8.00;7.00;;;;;;;;5062478;28;45418;-82
2021/06/30 02:25:07;;;;;;;;;8.25;6.50;;;;;;;;5060116;28;45524;-81
2021/06/30 02:27:32;;;;;;;;;8.25;7.00;;;;;;;;5062955;28;45497;-81
2021/06/30 02:29:58;;;;;;;;;8.25;5.25;;;;;;;;5053503;28;46549;-81
2021/06/30 02:32:23;;;;;;;;;12.00;8.50;;;;;;;;5052327;28;45784;-81
2021/06/30 02:34:48;;;;;;;;;9.50;7.00;;;;;;;;5050314;28;45496;-81
2021/06/30 02:37:14;;;;;;;;;11.25;8.25;;;;;;;;5051388;28;45493;-81
2021/06/30 02:39:39;;;;;;;;;9.50;8.75;;;;;;;;5050338;28;47005;-81
2021/06/30 02:42:04;;;;;;;;;11.33;8.33;;;;;;;;5050666;28;45370;-81
2021/06/30 02:44:29;;;;;;;;;10.33;8.33;;;;;;;;5051163;28;45432;-81
2021/06/30 02:46:55;;;;;;;;;11.33;10.00;;;;;;;;5053434;28;45526;-81
2021/06/30 02:49:20;;;;;;;;;12.75;7.50;;;;;;;;5052431;28;45392;-81
2021/06/30 02:51:45;;;;;;;;;13.33;9.00;;;;;;;;5053526;28;45453;-81
2021/06/30 02:54:10;;;;;;;;;11.00;8.00;;;;;;;;5052859;28;45280;-80
2021/06/30 02:56:36;;;;;;;;;10.25;9.25;;;;;;;;5053055;28;45422;-81
2021/06/30 02:59:01;;;;;;;;;13.67;8.67;;;;;;;;5052586;28;45382;-80
2021/06/30 03:01:27;;;;;;;;;13.75;7.75;;;;;;;;5050592;28;45612;-82
2021/06/30 03:03:52;;;;;;;;;9.75;7.25;;;;;;;;5054789;28;45914;-83
2021/06/30 03:06:17;;;;;;;;;7.33;7.33;;;;;;;;5050260;28;45509;-82
2021/06/30 03:08:42;;;;;;;;;10.00;7.00;;;;;;;;5051963;28;45401;-82
2021/06/30 03:11:08;;;;;;;;;11.00;7.00;;;;;;;;5052111;28;45649;-82
2021/06/30 03:13:33;;;;;;;;;12.00;10.50;;;;;;;;5052142;28;45281;-82
2021/06/30 03:15:58;;;;;;;;;11.33;9.00;;;;;;;;5054896;28;45806;-82
2021/06/30 03:18:23;;;;;;;;;12.33;11.33;;;;;;;;5051636;28;45732;-83
2021/06/30 03:20:48;;;;;;;;;10.00;8.33;;;;;;;;5051603;28;45478;-82
2021/06/30 03:23:14;;;;;;;;;9.67;8.00;;;;;;;;5052487;28;45854;-83
2021/06/30 03:25:39;;;;;;;;;8.00;7.33;;;;;;;;5052952;28;45493;-82
2021/06/30 03:28:06;;;;;;;;;10.25;7.00;;;;;;;;5053987;28;45575;-83
2021/06/30 03:30:31;;;;;;;;;13.00;11.00;;;;;;;;5053171;28;45830;-82
2021/06/30 03:32:57;;;;;;;;;18.00;9.25;;;;;;;;5051668;28;45516;-82
2021/06/30 03:35:23;;;;;;;;;9.50;8.00;;;;;;;;5051958;28;45757;-80
2021/06/30 03:37:48;;;;;;;;;15.00;9.50;;;;;;;;5051972;28;45394;-80
2021/06/30 03:40:14;;;;;;;;;10.00;10.00;;;;;;;;5051272;28;45644;-82
2021/06/30 03:42:39;;;;;;;;;11.50;7.50;;;;;;;;5053272;28;45732;-82
2021/06/30 03:45:05;;;;;;;;;11.67;8.00;;;;;;;;5052132;28;45712;-82
2021/06/30 03:47:30;;;;;;;;;10.75;8.25;;;;;;;;5051530;28;48514;-82
2021/06/30 03:49:58;;;;;;;;;12.50;7.25;;;;;;;;5049272;28;45486;-83
2021/06/30 03:52:23;;;;;;;;;12.75;9.75;;;;;;;;5045516;28;45510;-81
2021/06/30 03:54:48;;;;;;;;;12.33;7.00;;;;;;;;5054761;28;45402;-84
2021/06/30 03:57:13;;;;;;;;;13.50;8.00;;;;;;;;5052880;28;45494;-82
2021/06/30 03:59:39;;;;;;;;;9.33;8.67;;;;;;;;5049122;28;45493;-84
2021/06/30 04:02:04;;;;;;;;;10.00;9.33;;;;;;;;5053858;28;45486;-83
2021/06/30 04:04:29;;;;;;;;;9.33;9.33;;;;;;;;5060476;28;45538;-83
2021/06/30 04:06:54;;;;;;;;;9.75;9.75;;;;;;;;5058289;28;45564;-83
2021/06/30 04:09:19;;;;;;;;;11.00;7.67;;;;;;;;5051841;28;45801;-82
2021/06/30 04:11:45;;;;;;;;;11.33;10.33;;;;;;;;5052194;28;45880;-84
2021/06/30 04:14:10;;;;;;;;;8.50;7.25;;;;;;;;5061619;27;45403;-82
2021/06/30 04:16:36;;;;;;;;;14.33;8.33;;;;;;;;5060388;28;45477;-82
2021/06/30 04:19:01;;;;;;;;;10.25;7.25;;;;;;;;5064475;28;45486;-82
2021/06/30 04:21:26;;;;;;;;;10.00;7.00;;;;;;;;5058113;28;45480;-81
2021/06/30 04:23:53;;;;;;;;;12.33;8.33;;;;;;;;5057841;28;45423;-84
2021/06/30 04:26:18;;;;;;;;;14.25;8.25;;;;;;;;5060699;28;45761;-84
2021/06/30 04:28:44;;;;;;;;;8.75;7.00;;;;;;;;5055682;28;45509;-82
2021/06/30 04:31:09;;;;;;;;;11.33;8.33;;;;;;;;5055709;28;49184;-82
2021/06/30 04:33:34;;;;;;;;;9.33;8.33;;;;;;;;5058858;28;45814;-82
2021/06/30 04:35:59;;;;;;;;;12.00;8.33;;;;;;;;5057535;28;45674;-83
2021/06/30 04:38:28;;;;;;;;;11.00;7.33;;;;;;;;5059172;28;45475;-83
2021/06/30 04:40:54;;;;;;;;;7.50;6.50;;;;;;;;5059998;28;45444;-83
2021/06/30 04:43:22;;;;;;;;;8.50;8.50;;;;;;;;5049762;28;50584;-83
2021/06/30 04:45:48;;;;;;;;;7.75;6.25;;;;;;;;5052822;28;46180;-85
2021/06/30 04:48:13;;;;;;;;;8.75;5.00;;;;;;;;5050927;28;45475;-83
2021/06/30 04:50:38;;;;;;;;;6.00;6.00;;;;;;;;5051009;28;45525;-83
2021/06/30 04:53:04;;;;;;;;;7.00;7.00;;;;;;;;5051187;28;45572;-80
2021/06/30 04:55:29;;;;;;;;;10.00;9.00;;;;;;;;5051079;28;45430;-80
2021/06/30 04:57:54;;;;;;;;;7.67;7.67;;;;;;;;5053230;28;45504;-83
2021/06/30 05:00:19;;;;;;;;;9.67;6.33;;;;;;;;5050101;28;45427;-82
2021/06/30 05:02:44;;;;;;;;;8.33;6.00;;;;;;;;5049608;28;45260;-83
2021/06/30 05:05:10;;;;;;;;;9.00;6.33;;;;;;;;5050623;28;46321;-84
2021/06/30 05:07:35;;;;;;;;;8.67;6.00;;;;;;;;5055784;28;45354;-82
2021/06/30 05:10:00;;;;;;;;;6.00;6.00;;;;;;;;4966982;28;45502;-82
2021/06/30 05:12:26;;;;;;;;;9.50;6.50;;;;;;;;5046473;28;46137;-82
2021/06/30 05:14:51;;;;;;;;;6.67;5.00;;;;;;;;5041955;28;45590;-82
2021/06/30 05:17:16;;;;;;;;;7.67;7.00;;;;;;;;5047008;28;45584;-82
2021/06/30 05:19:41;;;;;;;;;6.50;6.50;;;;;;;;5045645;28;46558;-82
2021/06/30 05:22:07;;;;;;;;;6.25;5.75;;;;;;;;5049259;28;45538;-82
2021/06/30 05:24:33;;;;;;;;;9.00;8.50;;;;;;;;5054904;28;45486;-81
2021/06/30 05:26:58;;;;;;;;;10.50;6.50;;;;;;;;5054425;28;45566;-82
2021/06/30 05:29:25;;;;;;;;;10.00;9.00;;;;;;;;5053181;28;45727;-80
2021/06/30 05:31:50;;;;;;;;;5.75;5.25;;;;;;;;5057796;28;45477;-81
2021/06/30 05:34:15;;;;;;;;;8.00;6.00;;;;;;;;5055522;28;45563;-83
2021/06/30 05:36:47;;;;;;;;;9.33;7.00;;;;;;;;5053863;28;46026;-82
2021/06/30 05:39:13;;;;;;;;;10.25;7.25;;;;;;;;5053554;28;45419;-82
2021/06/30 05:41:38;;;;;;;;;8.75;6.00;;;;;;;;5052894;28;45491;-82
2021/06/30 05:44:04;;;;;;;;;11.00;7.33;;;;;;;;5053456;28;46496;-82
2021/06/30 05:46:29;;;;;;;;;8.75;6.75;;;;;;;;5052404;28;45553;-82
2021/06/30 05:48:55;;;;;;;;;11.67;8.00;;;;;;;;5059424;28;45378;-82
2021/06/30 05:51:20;;;;;;;;;9.25;6.00;;;;;;;;5053195;28;45557;-81
2021/06/30 05:53:45;;;;;;;;;9.67;6.00;;;;;;;;5054426;28;45576;-81
2021/06/30 05:56:11;;;;;;;;;12.33;6.00;;;;;;;;5053493;28;45796;-81
2021/06/30 05:58:37;;;;;;;;;9.00;8.00;;;;;;;;5053062;28;45612;-81
2021/06/30 06:01:02;;;;;;;;;7.00;7.00;;;;;;;;5055818;28;45538;-81
2021/06/30 06:03:27;;;;;;;;;9.75;7.50;;;;;;;;5054865;28;47113;-81
2021/06/30 06:05:53;;;;;;;;;8.33;8.00;;;;;;;;5052077;28;45489;-82
2021/06/30 06:08:18;;;;;;;;;7.00;7.00;;;;;;;;5054361;28;45611;-82
2021/06/30 06:10:43;;;;;;;;;8.67;8.33;;;;;;;;5055129;28;45507;-82
2021/06/30 06:13:08;;;;;;;;;11.75;7.25;;;;;;;;5054224;28;45569;-80
2021/06/30 06:15:35;;;;;;;;;7.00;6.67;;;;;;;;5053904;28;45678;-81
2021/06/30 06:18:00;;;;;;;;;9.25;7.25;;;;;;;;5051574;28;45516;-82
2021/06/30 06:20:25;;;;;;;;;11.75;9.00;;;;;;;;5042447;28;45648;-82
2021/06/30 06:22:50;;;;;;;;;12.00;9.25;;;;;;;;5049289;28;47390;-81
2021/06/30 06:25:16;;;;;;;;;7.75;7.00;;;;;;;;5058663;28;45467;-81
2021/06/30 06:27:41;;;;;;;;;7.25;4.75;;;;;;;;5052850;28;45589;-81
2021/06/30 06:30:08;;;;;;;;;7.00;6.25;;;;;;;;5054361;28;45559;-81
2021/06/30 06:32:33;;;;;;;;;8.00;6.00;;;;;;;;5050052;28;45987;-81
2021/06/30 06:34:58;;;;;;;;;9.33;7.00;;;;;;;;5053740;28;45820;-81
2021/06/30 06:37:23;;;;;;;;;9.33;7.00;;;;;;;;5051520;28;45744;-81
2021/06/30 06:39:49;;;;;;;;;6.67;6.00;;;;;;;;5054571;28;45536;-81
2021/06/30 06:42:14;;;;;;;;;8.50;7.00;;;;;;;;5052916;28;45378;-81
2021/06/30 06:44:40;;;;;;;;;12.25;8.00;;;;;;;;5048925;28;46857;-81
2021/06/30 06:47:06;;;;;;;;;7.25;6.00;;;;;;;;5053647;28;45485;-81
2021/06/30 06:49:31;;;;;;;;;6.50;6.50;;;;;;;;5052555;28;45481;-81
2021/06/30 06:51:58;;;;;;;;;7.00;6.00;;;;;;;;5049106;28;46498;-90
2021/06/30 06:54:24;;;;;;;;;9.00;6.25;;;;;;;;5051742;28;45427;-80
2021/06/30 06:56:49;;;;;;;;;10.33;6.67;;;;;;;;5052940;28;45398;-82
2021/06/30 06:59:14;;;;;;;;;7.67;5.33;;;;;;;;5052363;28;45861;-81
2021/06/30 07:01:39;;;;;;;;;8.00;7.33;;;;;;;;5051346;28;46595;-81
2021/06/30 07:04:05;;;;;;;;;8.33;6.67;;;;;;;;5053421;28;45413;-81
2021/06/30 07:06:30;;;;;;;;;7.25;5.25;;;;;;;;5052395;28;45800;-81
2021/06/30 07:08:55;;;;;;;;;6.00;4.33;;;;;;;;5052851;28;45934;-81
2021/06/30 07:11:20;;;;;;;;;10.50;6.75;;;;;;;;5050781;28;47416;-82
2021/06/30 07:13:47;;;;;;;;;6.00;4.33;;;;;;;;5063110;28;45415;-81
2021/06/30 07:16:13;;;;;;;;;8.50;5.25;;;;;;;;5053097;28;45422;-80
2021/06/30 07:18:38;;;;;;;;;8.25;4.25;;;;;;;;5061668;28;45261;-81
2021/06/30 07:21:04;;;;;;;;;4.67;4.00;;;;;;;;5056300;28;45565;-80
2021/06/30 07:23:30;;;;;;;;;5.00;4.75;;;;;;;;5057372;27;45386;-80
2021/06/30 07:25:55;;;;;;;;;5.50;5.25;;;;;;;;5059741;28;45418;-80
2021/06/30 07:28:21;;;;;;;;;3.50;3.00;;;;;;;;5064395;28;45323;-80
2021/06/30 07:30:46;;;;;;;;;7.25;4.25;;;;;;;;5062497;28;47060;-81
2021/06/30 07:33:12;;;;;;;;;5.00;4.25;;;;;;;;5057075;27;46415;-79
2021/06/30 07:35:37;;;;;;;;;6.25;5.00;;;;;;;;5055967;28;45621;-79
2021/06/30 07:38:03;;;;;;;;;8.50;5.50;;;;;;;;5061064;28;45676;-79
2021/06/30 07:40:28;;;;;;;;;10.00;5.25;;;;;;;;5052742;28;45694;-79
2021/06/30 07:42:55;;;;;;;;;5.50;4.25;;;;;;;;5064942;28;45542;-79
2021/06/30 07:45:21;;;;;;;;;6.00;4.00;;;;;;;;5052490;27;45450;-79
2021/06/30 07:47:46;;;;;;;;;5.50;5.00;;;;;;;;5051922;28;45421;-81
2021/06/30 07:50:12;;;;;;;;;6.50;5.00;;;;;;;;5062420;28;45626;-79
2021/06/30 07:52:37;;;;;;;;;6.00;4.00;;;;;;;;5060660;28;45823;-80
2021/06/30 07:55:03;;;;;;;;;7.00;4.75;;;;;;;;5061819;28;45621;-81
2021/06/30 07:57:28;;;;;;;;;6.00;5.00;;;;;;;;5057009;28;45507;-81
2021/06/30 07:59:54;;;;;;;;;9.50;5.75;;;;;;;;5052071;28;46224;-81
2021/06/30 08:02:19;;;;;;;;;6.00;4.00;;;;;;;;5076863;27;46005;-81
2021/06/30 08:04:44;;;;;;;;;5.33;4.00;;;;;;;;5061728;28;45631;-81
2021/06/30 08:07:09;;;;;;;;;4.67;4.67;;;;;;;;5064359;28;45371;-81
2021/06/30 08:09:35;;;;;;;;;4.33;4.00;;;;;;;;5049726;28;46502;-82
2021/06/30 08:12:02;;;;;;;;;10.25;7.00;;;;;;;;5042655;28;45537;-81
2021/06/30 08:14:27;;;;;;;;;6.25;5.25;;;;;;;;5042829;28;45437;-81
2021/06/30 08:16:52;;;;;;;;;7.00;4.25;;;;;;;;5047290;28;45478;-81
2021/06/30 08:19:18;;;;;;;;;5.67;4.67;;;;;;;;5051308;28;47329;-81
2021/06/30 08:21:43;;;;;;;;;7.25;6.25;;;;;;;;5059343;28;45319;-81
2021/06/30 08:24:08;;;;;;;;;7.00;7.00;;;;;;;;5055574;28;45518;-82
2021/06/30 08:26:34;;;;;;;;;7.67;6.00;;;;;;;;5052613;28;45399;-79
2021/06/30 08:28:59;;;;;;;;;7.67;6.33;;;;;;;;5051895;28;46094;-80
2021/06/30 08:31:24;;;;;;;;;11.50;9.25;;;;;;;;5050563;28;46047;-82
2021/06/30 08:33:50;;;;;;;;;7.75;7.00;;;;;;;;5062693;28;45875;-80
2021/06/30 08:36:15;;;;;;;;;6.33;6.33;;;;;;;;5056643;28;45446;-81
2021/06/30 08:38:40;;;;;;;;;6.67;5.00;;;;;;;;5057561;28;47425;-81
2021/06/30 08:41:05;;;;;;;;;6.00;6.00;;;;;;;;5060701;28;46074;-80
2021/06/30 08:43:31;;;;;;;;;8.00;8.00;;;;;;;;5056735;28;46615;-80
2021/06/30 08:45:56;;;;;;;;;8.00;7.00;;;;;;;;5060065;28;45362;-81
2021/06/30 08:48:23;;;;;;;;;8.50;8.50;;;;;;;;5056372;27;45500;-81
2021/06/30 08:50:50;;;;;;;;;9.25;7.50;;;;;;;;5051366;27;45675;-80
2021/06/30 08:53:15;;;;;;;;;8.75;7.50;;;;;;;;5036390;28;46393;-80
2021/06/30 08:55:44;;;;;;;;;11.00;7.25;;;;;;;;5046756;28;45590;-80
2021/06/30 08:58:10;;;;;;;;;8.75;7.25;;;;;;;;5050771;28;45667;-81
2021/06/30 09:00:36;;;;;;;;;9.50;7.75;;;;;;;;5058583;28;45467;-80
2021/06/30 09:03:01;;;;;;;;;7.25;7.25;;;;;;;;5056603;27;45426;-82
2021/06/30 09:07:55;;;;;;;;;6.00;6.00;;;;;;;;5061254;28;45394;-82
2021/06/30 09:10:31;;;;;;;;;9.50;8.25;;;;;;;;5060530;28;47012;-80
2021/06/30 09:12:56;;;;;;;;;12.25;9.75;;;;;;;;5064074;28;45442;-80
2021/06/30 09:15:33;;;;;;;;;8.25;7.00;;;;;;;;5056117;27;45506;-80
2021/06/30 09:18:33;;;;;;;;;10.00;10.00;;;;;;;;5054573;27;46185;-80
2021/06/30 09:21:16;;;;;;;;;12.75;11.25;;;;;;;;5044478;27;46344;-79
2021/06/30 09:23:57;;;;;;;;;6.00;6.00;;;;;;;;5044970;28;45466;-80
2021/06/30 09:26:23;;;;;;;;;10.75;9.50;;;;;;;;5042114;28;45389;-80
2021/06/30 09:28:48;;;;;;;;;10.50;8.00;;;;;;;;5053778;28;45925;-80
2021/06/30 09:31:15;;;;;;;;;7.67;7.67;;;;;;;;5060402;28;45888;-80
2021/06/30 09:33:59;;;;;;;;;10.75;8.25;;;;;;;;5060376;28;45475;-80
2021/06/30 09:36:25;;;;;;;;;7.25;7.25;;;;;;;;5055765;28;45485;-80
2021/06/30 09:38:51;;;;;;;;;11.50;9.00;;;;;;;;5053665;27;46243;-80
2021/06/30 09:41:17;;;;;;;;;10.00;10.00;;;;;;;;5058535;27;45322;-80
2021/06/30 09:43:43;;;;;;;;;8.25;7.25;;;;;;;;5059736;28;45837;-79
2021/06/30 09:46:19;;;;;;;;;10.75;7.50;;;;;;;;5060817;28;45478;-80
2021/06/30 09:48:52;;;;;;;;;8.00;6.75;;;;;;;;5060860;28;45460;-79
2021/06/30 09:51:20;;;;;;;;;10.00;8.25;;;;;;;;5055545;27;45382;-80
2021/06/30 09:53:46;;;;;;;;;8.75;7.50;;;;;;;;5056187;27;45501;-79
2021/06/30 09:56:11;;;;;;;;;6.00;6.00;;;;;;;;5060904;27;45677;-80
2021/06/30 09:58:36;;;;;;;;;6.00;6.00;;;;;;;;5061097;28;45905;-79
2021/06/30 10:01:14;;;;;;;;;10.00;8.33;;;;;;;;5063507;28;45443;-79
2021/06/30 10:03:39;;;;;;;;;7.75;6.00;;;;;;;;5059732;28;45429;-80
2021/06/30 10:06:23;;;;;;;;;10.50;8.00;;;;;;;;5058954;28;45561;-79
2021/06/30 10:08:49;;;;;;;;;7.25;6.75;;;;;;;;5059653;28;47623;-79
2021/06/30 10:11:14;;;;;;;;;7.67;7.33;;;;;;;;5063572;28;45513;-80
2021/06/30 10:13:39;;;;;;;;;5.00;5.00;;;;;;;;5065046;28;45354;-79
2021/06/30 10:16:04;;;;;;;;;6.00;5.00;;;;;;;;5054869;28;45653;-78
2021/06/30 10:18:33;;;;;;;;;8.50;6.50;;;;;;;;5055159;28;45328;-79
2021/06/30 10:20:58;;;;;;;;;7.00;7.00;;;;;;;;5054576;28;45819;-79
2021/06/30 10:23:26;;;;;;;;;8.00;4.50;;;;;;;;5061611;27;45771;-80
2021/06/30 10:25:51;;;;;;;;;12.00;8.25;;;;;;;;5062437;28;45675;-79
2021/06/30 10:28:17;;;;;;;;;7.25;5.75;;;;;;;;5059373;28;48203;-78
2021/06/30 10:30:43;;;;;;;;;10.75;9.00;;;;;;;;5062279;28;45481;-78
2021/06/30 10:33:11;;;;;;;;;8.50;7.00;;;;;;;;5051414;27;45465;-78
2021/06/30 10:35:46;;;;;;;;;9.50;6.00;;;;;;;;5050476;28;45437;-80
2021/06/30 10:38:11;;;;;;;;;8.25;6.25;;;;;;;;5049902;28;47364;-80
2021/06/30 10:40:37;;;;;;;;;6.50;6.50;;;;;;;;5051343;28;45419;-78
2021/06/30 10:43:06;;;;;;;;;11.00;9.50;;;;;;;;5065640;28;45508;-78
2021/06/30 10:45:31;;;;;;;;;7.25;7.25;;;;;;;;5058602;28;45986;-78
2021/06/30 10:48:07;;;;;;;;;10.00;10.00;;;;;;;;5070282;27;47032;-80
2021/06/30 10:50:41;;;;;;;;;10.25;9.00;;;;;;;;5058209;27;45550;-78
2021/06/30 10:53:11;;;;;;;;;8.00;8.00;;;;;;;;5050645;28;45698;-78
2021/06/30 10:55:37;;;;;;;;;9.75;8.75;;;;;;;;5048783;28;45848;-79
2021/06/30 10:58:12;;;;;;;;;8.50;7.25;;;;;;;;5052323;28;45838;-79
2021/06/30 11:00:38;;;;;;;;;8.50;7.75;;;;;;;;5052653;28;45878;-79
2021/06/30 11:03:22;;;;;;;;;11.25;8.00;;;;;;;;5050619;28;45560;-79
2021/06/30 11:05:48;;;;;;;;;11.50;8.00;;;;;;;;5051373;28;45585;-78
2021/06/30 11:08:32;;;;;;;;;10.25;7.00;;;;;;;;5050754;28;47500;-79
2021/06/30 11:10:57;;;;;;;;;9.25;8.00;;;;;;;;5050389;28;45834;-78
2021/06/30 11:13:42;;;;;;;;;14.00;10.00;;;;;;;;5049472;28;46001;-79
2021/06/30 11:16:07;;;;;;;;;9.50;8.25;;;;;;;;5051456;28;45446;-78
2021/06/30 11:18:32;;;;;;;;;11.33;10.67;;;;;;;;5051397;28;47115;-79
2021/06/30 11:21:01;;;;;;;;;16.00;14.33;;;;;;;;5049829;28;45711;-78
2021/06/30 11:23:27;;;;;;;;;36.25;33.50;;;;;;;;5051582;28;45558;-79
2021/06/30 11:25:56;;;;;;;;;66.25;52.50;;;;;;;;5051283;28;45521;-79
2021/06/30 11:28:31;;;;;;;;;50.25;41.75;;;;;;;;5050993;28;45666;-79
2021/06/30 11:30:57;;;;;;;;;28.25;24.75;;;;;;;;5044369;28;46040;-79
2021/06/30 11:33:22;;;;;;;;;22.00;18.25;;;;;;;;5051513;28;45611;-79
2021/06/30 11:35:48;;;;;;;;;14.25;12.50;;;;;;;;5050525;28;45701;-83
2021/06/30 11:38:15;;;;;;;;;12.00;11.25;;;;;;;;5050174;28;48303;-79
2021/06/30 11:40:49;;;;;;;;;10.50;10.25;;;;;;;;5049970;28;46033;-79
2021/06/30 11:43:17;;;;;;;;;11.00;11.00;;;;;;;;5048326;28;45541;-79
2021/06/30 11:45:43;;;;;;;;;12.75;10.00;;;;;;;;5046304;28;45597;-79
2021/06/30 11:48:10;;;;;;;;;9.00;9.00;;;;;;;;5042141;28;47209;-79
2021/06/30 11:50:55;;;;;;;;;12.00;9.50;;;;;;;;5043342;28;45943;-78
2021/06/30 11:53:42;;;;;;;;;9.00;7.00;;;;;;;;5047286;28;45540;-78
2021/06/30 11:56:08;;;;;;;;;9.00;8.50;;;;;;;;5047573;28;45478;-80
2021/06/30 11:58:48;;;;;;;;;9.75;9.00;;;;;;;;5046431;28;45647;-79
2021/06/30 12:01:16;;;;;;;;;6.75;6.75;;;;;;;;5043223;28;46523;-80
2021/06/30 12:03:41;;;;;;;;;13.00;11.00;;;;;;;;5050526;28;45491;-81
2021/06/30 12:06:20;;;;;;;;;12.00;9.00;;;;;;;;5050012;28;45373;-60
2021/06/30 12:09:03;;;;;;;;;12.75;11.00;;;;;;;;5045577;28;45552;-59
2021/06/30 12:11:35;;;;;;;;;10.00;8.75;;;;;;;;5044396;28;45490;-79
2021/06/30 12:14:06;;;;;;;;;12.25;10.50;;;;;;;;5042106;28;45593;-78
2021/06/30 12:16:42;;;;;;;;;12.50;8.50;;;;;;;;5045871;28;46612;-79
2021/06/30 12:19:15;;;;;;;;;8.50;8.50;;;;;;;;5042588;28;48077;-80
2021/06/30 12:21:42;;;;;;;;;9.50;9.50;;;;;;;;5045485;28;45910;-80
2021/06/30 12:24:13;;;;;;;;;10.75;9.00;;;;;;;;5039647;28;45857;-82
2021/06/30 12:26:59;;;;;;;;;13.25;9.50;;;;;;;;5043562;28;45419;-81
2021/06/30 12:29:25;;;;;;;;;11.00;10.25;;;;;;;;5043481;28;45497;-80
2021/06/30 12:31:50;;;;;;;;;11.00;7.75;;;;;;;;5041460;28;46012;-79
2021/06/30 12:34:16;;;;;;;;;9.75;9.75;;;;;;;;5044220;28;46843;-80
2021/06/30 12:36:42;;;;;;;;;8.00;8.00;;;;;;;;5045414;28;45462;-80
2021/06/30 12:39:24;;;;;;;;;7.00;7.00;;;;;;;;5038417;28;46192;-80
2021/06/30 12:41:53;;;;;;;;;8.00;8.00;;;;;;;;5047339;28;45556;-78
2021/06/30 12:44:19;;;;;;;;;9.25;9.25;;;;;;;;5042510;28;45747;-81
2021/06/30 12:46:44;;;;;;;;;10.00;10.00;;;;;;;;5044664;28;45593;-79
2021/06/30 12:49:16;;;;;;;;;9.25;7.50;;;;;;;;5045635;28;45911;-79
2021/06/30 12:51:44;;;;;;;;;9.50;8.00;;;;;;;;5046774;28;46232;-80
2021/06/30 12:54:09;;;;;;;;;12.75;9.75;;;;;;;;5044971;28;45808;-80
2021/06/30 12:56:42;;;;;;;;;10.25;8.00;;;;;;;;5048978;28;45420;-81
2021/06/30 12:59:18;;;;;;;;;7.75;7.75;;;;;;;;5045927;28;47420;-80
2021/06/30 13:01:44;;;;;;;;;9.00;7.00;;;;;;;;5045026;28;45996;-80
2021/06/30 13:04:10;;;;;;;;;9.75;8.25;;;;;;;;5044424;28;45526;-81
2021/06/30 13:06:47;;;;;;;;;9.75;7.75;;;;;;;;5049345;28;45678;-79
2021/06/30 13:09:13;;;;;;;;;8.00;8.00;;;;;;;;5041496;28;45730;-81
2021/06/30 13:11:43;;;;;;;;;7.75;7.75;;;;;;;;5045437;28;45749;-80
2021/06/30 13:14:11;;;;;;;;;9.00;9.00;;;;;;;;5043641;28;45513;-81
2021/06/30 13:16:51;;;;;;;;;7.25;7.25;;;;;;;;5047565;28;49857;-80
2021/06/30 13:19:18;;;;;;;;;9.00;7.50;;;;;;;;5049285;28;45521;-80
2021/06/30 13:22:08;;;;;;;;;9.00;9.00;;;;;;;;5048725;28;45996;-80
2021/06/30 13:35:28;;;;;;;;;8.75;7.25;;;;;;;;5034421;28;45513;-80
2021/06/30 13:37:55;;;;;;;;;8.50;7.50;;;;;;;;5046810;28;45398;-80
2021/06/30 13:40:21;;;;;;;;;12.00;7.00;;;;;;;;5054403;28;47206;-81
2021/06/30 13:42:48;;;;;;;;;8.75;7.25;;;;;;;;5051468;28;45652;-82
2021/06/30 13:45:13;;;;;;;;;11.25;9.00;;;;;;;;5050279;28;46479;-79
2021/06/30 13:47:39;;;;;;;;;9.67;8.00;;;;;;;;5041736;28;46801;-80
2021/06/30 13:50:05;;;;;;;;;7.00;7.00;;;;;;;;5043357;28;45998;-80
2021/06/30 13:52:32;;;;;;;;;7.50;7.50;;;;;;;;5043429;28;46866;-80
2021/06/30 13:54:57;;;;;;;;;7.25;7.25;;;;;;;;5042856;28;45583;-83
2021/06/30 13:57:23;;;;;;;;;8.67;8.33;;;;;;;;5040913;28;45592;-83
2021/06/30 13:59:48;;;;;;;;;10.67;8.00;;;;;;;;5045207;28;46048;-82
2021/06/30 14:02:13;;;;;;;;;6.00;6.00;;;;;;;;5039942;28;45413;-80
2021/06/30 14:04:38;;;;;;;;;7.00;7.00;;;;;;;;5050634;28;45505;-80
2021/06/30 14:07:03;;;;;;;;;7.33;7.33;;;;;;;;5044374;28;45485;-79
2021/06/30 14:09:29;;;;;;;;;8.00;7.00;;;;;;;;5052333;28;47503;-80
2021/06/30 14:11:54;;;;;;;;;7.33;7.33;;;;;;;;5049881;28;45610;-79
2021/06/30 14:14:19;;;;;;;;;11.25;8.50;;;;;;;;5051418;28;45636;-79
2021/06/30 14:16:44;;;;;;;;;7.00;6.33;;;;;;;;5040986;28;45544;-79
2021/06/30 14:19:10;;;;;;;;;7.67;6.33;;;;;;;;5047646;28;45359;-79
2021/06/30 14:21:35;;;;;;;;;8.25;8.00;;;;;;;;5047714;28;45880;-83
2021/06/30 14:24:00;;;;;;;;;7.50;7.50;;;;;;;;5052770;28;45733;-79
2021/06/30 14:26:25;;;;;;;;;9.67;8.00;;;;;;;;5053224;28;45355;-79
2021/06/30 14:28:51;;;;;;;;;9.00;7.75;;;;;;;;5053470;28;45472;-78
2021/06/30 14:31:16;;;;;;;;;8.50;8.25;;;;;;;;5053627;28;45438;-79
2021/06/30 14:33:41;;;;;;;;;9.00;7.00;;;;;;;;5048955;28;45781;-81
2021/06/30 14:36:07;;;;;;;;;8.00;8.00;;;;;;;;5054111;28;45776;-79
2021/06/30 14:38:32;;;;;;;;;8.00;7.50;;;;;;;;5051789;28;46190;-80
2021/06/30 14:40:58;;;;;;;;;9.50;9.50;;;;;;;;5051948;28;45280;-81
2021/06/30 14:43:24;;;;;;;;;9.50;6.50;;;;;;;;5060943;28;45538;-79
2021/06/30 14:45:53;;;;;;;;;6.00;6.00;;;;;;;;5053147;28;45556;-80
2021/06/30 14:48:20;;;;;;;;;6.75;6.25;;;;;;;;5051330;28;46463;-79
2021/06/30 14:50:45;;;;;;;;;9.50;7.50;;;;;;;;5047197;28;45775;-80